sensor_id;sensor_type;location;lat;lon;timestamp;P1;durP1;ratioP1;P2;durP2;ratioP2
8478;SDS011;4276;49.354;6.804;2023-03-04T00:02:07;32.13;;;23.10;;
8478;SDS011;4276;49.354;6.804;2023-03-04T00:04:33;33.03;;;24.27;;
8478;SDS011;4276;49.354;6.804;2023-03-04T00:07:00;30.27;;;22.60;;
8478;SDS011;4276;49.354;6.804;2023-03-04T00:09:26;30.47;;;23.17;;
8478;SDS011;4276;49.354;6.804;2023-03-04T00:11:53;31.87;;;23.27;;
8478;SDS011;4276;49.354;6.804;2023-03-04T00:14:19;30.93;;;23.37;;
8478;SDS011;4276;49.354;6.804;2023-03-04T00:16:46;29.37;;;21.30;;
8478;SDS011;4276;49.354;6.804;2023-03-04T00:19:14;31.27;;;22.93;;
8478;SDS011;4276;49.354;6.804;2023-03-04T00:21:40;31.30;;;22.83;;
8478;SDS011;4276;49.354;6.804;2023-03-04T00:24:07;32.40;;;22.37;;
8478;SDS011;4276;49.354;6.804;2023-03-04T00:26:34;33.97;;;23.87;;
8478;SDS011;4276;49.354;6.804;2023-03-04T00:29:00;32.77;;;23.23;;
8478;SDS011;4276;49.354;6.804;2023-03-04T00:31:27;32.87;;;23.27;;
8478;SDS011;4276;49.354;6.804;2023-03-04T00:33:53;32.00;;;22.10;;
8478;SDS011;4276;49.354;6.804;2023-03-04T00:36:20;33.33;;;24.17;;
8478;SDS011;4276;49.354;6.804;2023-03-04T00:38:46;35.60;;;24.70;;
8478;SDS011;4276;49.354;6.804;2023-03-04T00:41:13;33.40;;;22.77;;
8478;SDS011;4276;49.354;6.804;2023-03-04T00:43:39;33.33;;;23.97;;
8478;SDS011;4276;49.354;6.804;2023-03-04T00:46:06;31.87;;;22.80;;
8478;SDS011;4276;49.354;6.804;2023-03-04T00:48:32;34.03;;;24.00;;
8478;SDS011;4276;49.354;6.804;2023-03-04T00:50:59;32.20;;;22.63;;
8478;SDS011;4276;49.354;6.804;2023-03-04T00:53:25;34.07;;;23.83;;
8478;SDS011;4276;49.354;6.804;2023-03-04T00:55:52;32.03;;;23.00;;
8478;SDS011;4276;49.354;6.804;2023-03-04T00:58:18;37.73;;;26.03;;
8478;SDS011;4276;49.354;6.804;2023-03-04T01:00:45;36.17;;;26.07;;
8478;SDS011;4276;49.354;6.804;2023-03-04T01:03:11;34.33;;;24.37;;
8478;SDS011;4276;49.354;6.804;2023-03-04T01:05:38;38.70;;;25.17;;
8478;SDS011;4276;49.354;6.804;2023-03-04T01:08:04;32.63;;;24.03;;
8478;SDS011;4276;49.354;6.804;2023-03-04T01:10:31;35.10;;;23.07;;
8478;SDS011;4276;49.354;6.804;2023-03-04T01:12:58;36.37;;;24.57;;
8478;SDS011;4276;49.354;6.804;2023-03-04T01:15:24;36.97;;;25.07;;
8478;SDS011;4276;49.354;6.804;2023-03-04T01:17:51;37.37;;;25.03;;
8478;SDS011;4276;49.354;6.804;2023-03-04T01:20:17;35.40;;;23.83;;
8478;SDS011;4276;49.354;6.804;2023-03-04T01:22:44;35.57;;;24.33;;
8478;SDS011;4276;49.354;6.804;2023-03-04T01:25:10;40.50;;;26.10;;
8478;SDS011;4276;49.354;6.804;2023-03-04T01:27:37;40.57;;;25.67;;
8478;SDS011;4276;49.354;6.804;2023-03-04T01:30:04;40.43;;;25.10;;
8478;SDS011;4276;49.354;6.804;2023-03-04T01:32:31;37.13;;;24.17;;
8478;SDS011;4276;49.354;6.804;2023-03-04T01:34:58;39.17;;;25.27;;
8478;SDS011;4276;49.354;6.804;2023-03-04T01:37:24;38.07;;;24.33;;
8478;SDS011;4276;49.354;6.804;2023-03-04T01:39:51;35.90;;;24.03;;
8478;SDS011;4276;49.354;6.804;2023-03-04T01:42:18;35.63;;;23.37;;
8478;SDS011;4276;49.354;6.804;2023-03-04T01:44:47;38.60;;;24.43;;
8478;SDS011;4276;49.354;6.804;2023-03-04T01:47:14;35.57;;;23.70;;
8478;SDS011;4276;49.354;6.804;2023-03-04T01:49:40;35.30;;;22.90;;
8478;SDS011;4276;49.354;6.804;2023-03-04T01:52:13;37.87;;;23.40;;
8478;SDS011;4276;49.354;6.804;2023-03-04T01:54:40;35.00;;;23.60;;
8478;SDS011;4276;49.354;6.804;2023-03-04T01:57:17;38.00;;;23.47;;
8478;SDS011;4276;49.354;6.804;2023-03-04T01:59:45;33.73;;;22.87;;
8478;SDS011;4276;49.354;6.804;2023-03-04T02:02:12;36.77;;;22.33;;
8478;SDS011;4276;49.354;6.804;2023-03-04T02:04:40;31.80;;;22.53;;
8478;SDS011;4276;49.354;6.804;2023-03-04T02:07:07;33.63;;;22.87;;
8478;SDS011;4276;49.354;6.804;2023-03-04T02:09:34;32.03;;;22.23;;
8478;SDS011;4276;49.354;6.804;2023-03-04T02:12:01;32.97;;;22.33;;
8478;SDS011;4276;49.354;6.804;2023-03-04T02:14:28;32.00;;;22.40;;
8478;SDS011;4276;49.354;6.804;2023-03-04T02:16:54;33.53;;;22.47;;
8478;SDS011;4276;49.354;6.804;2023-03-04T02:22:06;32.87;;;21.73;;
8478;SDS011;4276;49.354;6.804;2023-03-04T02:24:34;29.20;;;20.37;;
8478;SDS011;4276;49.354;6.804;2023-03-04T02:27:04;34.90;;;21.73;;
8478;SDS011;4276;49.354;6.804;2023-03-04T02:29:31;32.33;;;22.20;;
8478;SDS011;4276;49.354;6.804;2023-03-04T02:31:58;33.03;;;21.97;;
8478;SDS011;4276;49.354;6.804;2023-03-04T02:34:27;32.50;;;21.73;;
8478;SDS011;4276;49.354;6.804;2023-03-04T02:36:54;34.37;;;22.60;;
8478;SDS011;4276;49.354;6.804;2023-03-04T02:39:24;35.27;;;22.70;;
8478;SDS011;4276;49.354;6.804;2023-03-04T02:41:54;34.40;;;22.40;;
8478;SDS011;4276;49.354;6.804;2023-03-04T02:44:22;32.37;;;21.13;;
8478;SDS011;4276;49.354;6.804;2023-03-04T02:46:52;33.07;;;21.83;;
8478;SDS011;4276;49.354;6.804;2023-03-04T02:49:19;37.20;;;23.33;;
8478;SDS011;4276;49.354;6.804;2023-03-04T02:51:46;39.33;;;23.13;;
8478;SDS011;4276;49.354;6.804;2023-03-04T02:54:17;36.60;;;23.33;;
8478;SDS011;4276;49.354;6.804;2023-03-04T02:56:45;39.07;;;23.17;;
8478;SDS011;4276;49.354;6.804;2023-03-04T02:59:16;34.23;;;22.33;;
8478;SDS011;4276;49.354;6.804;2023-03-04T03:01:43;35.27;;;22.23;;
8478;SDS011;4276;49.354;6.804;2023-03-04T03:04:10;38.73;;;23.47;;
8478;SDS011;4276;49.354;6.804;2023-03-04T03:06:38;39.97;;;23.57;;
8478;SDS011;4276;49.354;6.804;2023-03-04T03:09:05;36.90;;;22.20;;
8478;SDS011;4276;49.354;6.804;2023-03-04T03:11:34;36.30;;;22.73;;
8478;SDS011;4276;49.354;6.804;2023-03-04T03:14:01;39.07;;;23.23;;
8478;SDS011;4276;49.354;6.804;2023-03-04T03:16:28;35.33;;;21.70;;
8478;SDS011;4276;49.354;6.804;2023-03-04T03:18:54;37.30;;;23.63;;
8478;SDS011;4276;49.354;6.804;2023-03-04T03:21:21;37.60;;;23.53;;
8478;SDS011;4276;49.354;6.804;2023-03-04T03:23:47;38.27;;;24.23;;
8478;SDS011;4276;49.354;6.804;2023-03-04T03:26:16;37.53;;;23.23;;
8478;SDS011;4276;49.354;6.804;2023-03-04T03:28:43;37.27;;;22.63;;
8478;SDS011;4276;49.354;6.804;2023-03-04T03:31:09;31.37;;;21.30;;
8478;SDS011;4276;49.354;6.804;2023-03-04T03:33:36;38.60;;;23.57;;
8478;SDS011;4276;49.354;6.804;2023-03-04T03:36:02;37.90;;;24.40;;
8478;SDS011;4276;49.354;6.804;2023-03-04T03:38:29;38.90;;;22.30;;
8478;SDS011;4276;49.354;6.804;2023-03-04T03:40:56;37.30;;;24.00;;
8478;SDS011;4276;49.354;6.804;2023-03-04T03:43:22;38.53;;;24.30;;
8478;SDS011;4276;49.354;6.804;2023-03-04T03:45:49;36.30;;;22.57;;
8478;SDS011;4276;49.354;6.804;2023-03-04T03:48:17;34.63;;;21.77;;
8478;SDS011;4276;49.354;6.804;2023-03-04T03:50:43;35.77;;;21.83;;
8478;SDS011;4276;49.354;6.804;2023-03-04T03:53:10;35.53;;;21.50;;
8478;SDS011;4276;49.354;6.804;2023-03-04T03:55:37;36.63;;;22.67;;
8478;SDS011;4276;49.354;6.804;2023-03-04T03:58:04;35.13;;;21.37;;
8478;SDS011;4276;49.354;6.804;2023-03-04T04:00:31;39.37;;;22.20;;
8478;SDS011;4276;49.354;6.804;2023-03-04T04:02:57;35.90;;;21.40;;
8478;SDS011;4276;49.354;6.804;2023-03-04T04:05:25;38.53;;;23.07;;
8478;SDS011;4276;49.354;6.804;2023-03-04T04:07:52;37.77;;;22.90;;
8478;SDS011;4276;49.354;6.804;2023-03-04T04:10:19;34.13;;;21.40;;
8478;SDS011;4276;49.354;6.804;2023-03-04T04:12:46;35.93;;;21.30;;
8478;SDS011;4276;49.354;6.804;2023-03-04T04:15:13;37.90;;;22.03;;
8478;SDS011;4276;49.354;6.804;2023-03-04T04:17:39;39.37;;;22.47;;
8478;SDS011;4276;49.354;6.804;2023-03-04T04:20:06;33.67;;;21.87;;
8478;SDS011;4276;49.354;6.804;2023-03-04T04:22:33;37.50;;;21.57;;
8478;SDS011;4276;49.354;6.804;2023-03-04T04:25:00;34.60;;;20.90;;
8478;SDS011;4276;49.354;6.804;2023-03-04T04:27:26;35.57;;;21.40;;
8478;SDS011;4276;49.354;6.804;2023-03-04T04:29:53;34.13;;;21.30;;
8478;SDS011;4276;49.354;6.804;2023-03-04T04:32:19;33.93;;;21.47;;
8478;SDS011;4276;49.354;6.804;2023-03-04T04:34:46;32.80;;;21.10;;
8478;SDS011;4276;49.354;6.804;2023-03-04T04:37:12;39.27;;;23.40;;
8478;SDS011;4276;49.354;6.804;2023-03-04T04:39:39;35.33;;;22.83;;
8478;SDS011;4276;49.354;6.804;2023-03-04T04:42:07;36.03;;;23.23;;
8478;SDS011;4276;49.354;6.804;2023-03-04T04:44:35;32.97;;;21.93;;
8478;SDS011;4276;49.354;6.804;2023-03-04T04:47:04;33.83;;;21.83;;
8478;SDS011;4276;49.354;6.804;2023-03-04T04:49:32;37.83;;;22.10;;
8478;SDS011;4276;49.354;6.804;2023-03-04T04:51:58;39.97;;;22.13;;
8478;SDS011;4276;49.354;6.804;2023-03-04T04:54:25;34.43;;;21.27;;
8478;SDS011;4276;49.354;6.804;2023-03-04T04:56:52;36.03;;;21.17;;
8478;SDS011;4276;49.354;6.804;2023-03-04T04:59:18;36.53;;;21.67;;
8478;SDS011;4276;49.354;6.804;2023-03-04T05:01:45;33.37;;;21.43;;
8478;SDS011;4276;49.354;6.804;2023-03-04T05:04:11;36.23;;;21.70;;
8478;SDS011;4276;49.354;6.804;2023-03-04T05:06:38;34.37;;;21.13;;
8478;SDS011;4276;49.354;6.804;2023-03-04T05:09:05;32.77;;;20.60;;
8478;SDS011;4276;49.354;6.804;2023-03-04T05:11:32;36.33;;;21.30;;
8478;SDS011;4276;49.354;6.804;2023-03-04T05:13:59;34.47;;;21.17;;
8478;SDS011;4276;49.354;6.804;2023-03-04T05:16:25;34.57;;;20.57;;
8478;SDS011;4276;49.354;6.804;2023-03-04T05:18:52;35.57;;;21.77;;
8478;SDS011;4276;49.354;6.804;2023-03-04T05:21:18;35.23;;;20.77;;
8478;SDS011;4276;49.354;6.804;2023-03-04T05:23:45;36.07;;;21.37;;
8478;SDS011;4276;49.354;6.804;2023-03-04T05:26:12;32.03;;;19.67;;
8478;SDS011;4276;49.354;6.804;2023-03-04T05:28:40;35.90;;;21.00;;
8478;SDS011;4276;49.354;6.804;2023-03-04T05:31:07;33.80;;;20.73;;
8478;SDS011;4276;49.354;6.804;2023-03-04T05:33:34;34.23;;;20.83;;
8478;SDS011;4276;49.354;6.804;2023-03-04T05:36:01;32.70;;;20.20;;
8478;SDS011;4276;49.354;6.804;2023-03-04T05:38:28;33.33;;;20.93;;
8478;SDS011;4276;49.354;6.804;2023-03-04T05:40:58;35.07;;;21.80;;
8478;SDS011;4276;49.354;6.804;2023-03-04T05:43:26;33.70;;;20.30;;
8478;SDS011;4276;49.354;6.804;2023-03-04T05:45:56;32.07;;;18.67;;
8478;SDS011;4276;49.354;6.804;2023-03-04T05:48:23;34.37;;;20.20;;
8478;SDS011;4276;49.354;6.804;2023-03-04T05:50:58;33.40;;;20.17;;
8478;SDS011;4276;49.354;6.804;2023-03-04T05:53:25;36.70;;;19.67;;
8478;SDS011;4276;49.354;6.804;2023-03-04T05:55:53;33.30;;;19.37;;
8478;SDS011;4276;49.354;6.804;2023-03-04T05:58:19;37.93;;;21.53;;
8478;SDS011;4276;49.354;6.804;2023-03-04T06:00:47;31.97;;;19.27;;
8478;SDS011;4276;49.354;6.804;2023-03-04T06:03:18;34.27;;;20.97;;
8478;SDS011;4276;49.354;6.804;2023-03-04T06:05:46;34.27;;;21.27;;
8478;SDS011;4276;49.354;6.804;2023-03-04T06:08:13;33.80;;;21.97;;
8478;SDS011;4276;49.354;6.804;2023-03-04T06:10:40;32.50;;;21.13;;
8478;SDS011;4276;49.354;6.804;2023-03-04T06:13:07;36.97;;;22.77;;
8478;SDS011;4276;49.354;6.804;2023-03-04T06:15:34;39.47;;;23.03;;
8478;SDS011;4276;49.354;6.804;2023-03-04T06:18:01;34.47;;;22.47;;
8478;SDS011;4276;49.354;6.804;2023-03-04T06:20:27;35.40;;;22.30;;
8478;SDS011;4276;49.354;6.804;2023-03-04T06:22:54;39.00;;;22.93;;
8478;SDS011;4276;49.354;6.804;2023-03-04T06:25:20;31.83;;;21.63;;
8478;SDS011;4276;49.354;6.804;2023-03-04T06:27:47;35.63;;;22.50;;
8478;SDS011;4276;49.354;6.804;2023-03-04T06:30:16;36.00;;;22.27;;
8478;SDS011;4276;49.354;6.804;2023-03-04T06:32:43;34.40;;;21.60;;
8478;SDS011;4276;49.354;6.804;2023-03-04T06:35:10;33.97;;;22.70;;
8478;SDS011;4276;49.354;6.804;2023-03-04T06:37:37;34.33;;;22.67;;
8478;SDS011;4276;49.354;6.804;2023-03-04T06:40:04;35.63;;;22.90;;
8478;SDS011;4276;49.354;6.804;2023-03-04T06:42:33;33.70;;;21.57;;
8478;SDS011;4276;49.354;6.804;2023-03-04T06:45:00;33.73;;;20.80;;
8478;SDS011;4276;49.354;6.804;2023-03-04T06:47:27;34.00;;;21.10;;
8478;SDS011;4276;49.354;6.804;2023-03-04T06:49:54;32.07;;;19.37;;
8478;SDS011;4276;49.354;6.804;2023-03-04T06:52:20;36.37;;;21.10;;
8478;SDS011;4276;49.354;6.804;2023-03-04T06:54:47;33.77;;;20.80;;
8478;SDS011;4276;49.354;6.804;2023-03-04T06:57:13;35.87;;;20.83;;
8478;SDS011;4276;49.354;6.804;2023-03-04T06:59:40;34.27;;;20.83;;
8478;SDS011;4276;49.354;6.804;2023-03-04T07:02:11;37.70;;;23.33;;
8478;SDS011;4276;49.354;6.804;2023-03-04T07:04:38;41.07;;;25.07;;
8478;SDS011;4276;49.354;6.804;2023-03-04T07:07:05;40.47;;;27.67;;
8478;SDS011;4276;49.354;6.804;2023-03-04T07:09:32;44.57;;;27.90;;
8478;SDS011;4276;49.354;6.804;2023-03-04T07:11:58;43.43;;;27.97;;
8478;SDS011;4276;49.354;6.804;2023-03-04T07:14:24;44.73;;;25.63;;
8478;SDS011;4276;49.354;6.804;2023-03-04T07:16:52;38.27;;;23.23;;
8478;SDS011;4276;49.354;6.804;2023-03-04T07:19:19;43.63;;;26.13;;
8478;SDS011;4276;49.354;6.804;2023-03-04T07:21:45;43.77;;;24.70;;
8478;SDS011;4276;49.354;6.804;2023-03-04T07:24:12;39.50;;;24.03;;
8478;SDS011;4276;49.354;6.804;2023-03-04T07:26:39;42.47;;;26.37;;
8478;SDS011;4276;49.354;6.804;2023-03-04T07:29:05;38.23;;;25.10;;
8478;SDS011;4276;49.354;6.804;2023-03-04T07:31:33;40.03;;;25.47;;
8478;SDS011;4276;49.354;6.804;2023-03-04T07:34:06;37.47;;;25.17;;
8478;SDS011;4276;49.354;6.804;2023-03-04T07:36:36;38.07;;;24.00;;
8478;SDS011;4276;49.354;6.804;2023-03-04T07:39:03;39.57;;;25.27;;
8478;SDS011;4276;49.354;6.804;2023-03-04T07:41:30;41.53;;;26.67;;
8478;SDS011;4276;49.354;6.804;2023-03-04T07:43:57;42.43;;;26.27;;
8478;SDS011;4276;49.354;6.804;2023-03-04T07:46:24;43.20;;;27.77;;
8478;SDS011;4276;49.354;6.804;2023-03-04T07:48:51;39.63;;;26.47;;
8478;SDS011;4276;49.354;6.804;2023-03-04T07:51:18;39.63;;;25.13;;
8478;SDS011;4276;49.354;6.804;2023-03-04T07:53:47;41.60;;;27.10;;
8478;SDS011;4276;49.354;6.804;2023-03-04T07:56:16;39.77;;;25.63;;
8478;SDS011;4276;49.354;6.804;2023-03-04T07:58:43;38.80;;;24.47;;
8478;SDS011;4276;49.354;6.804;2023-03-04T08:01:11;38.30;;;25.70;;
8478;SDS011;4276;49.354;6.804;2023-03-04T08:03:39;38.90;;;26.17;;
8478;SDS011;4276;49.354;6.804;2023-03-04T08:06:06;41.40;;;27.00;;
8478;SDS011;4276;49.354;6.804;2023-03-04T08:08:34;39.63;;;26.23;;
8478;SDS011;4276;49.354;6.804;2023-03-04T08:11:05;39.87;;;26.47;;
8478;SDS011;4276;49.354;6.804;2023-03-04T08:13:33;42.03;;;27.60;;
8478;SDS011;4276;49.354;6.804;2023-03-04T08:15:59;40.53;;;25.40;;
8478;SDS011;4276;49.354;6.804;2023-03-04T08:18:26;43.07;;;26.47;;
8478;SDS011;4276;49.354;6.804;2023-03-04T08:20:53;42.93;;;27.43;;
8478;SDS011;4276;49.354;6.804;2023-03-04T08:23:19;41.57;;;27.97;;
8478;SDS011;4276;49.354;6.804;2023-03-04T08:25:46;44.47;;;29.40;;
8478;SDS011;4276;49.354;6.804;2023-03-04T08:28:13;49.33;;;30.90;;
8478;SDS011;4276;49.354;6.804;2023-03-04T08:30:39;46.87;;;30.07;;
8478;SDS011;4276;49.354;6.804;2023-03-04T08:33:07;46.80;;;30.17;;
8478;SDS011;4276;49.354;6.804;2023-03-04T08:35:38;49.97;;;32.50;;
8478;SDS011;4276;49.354;6.804;2023-03-04T08:38:05;49.40;;;31.63;;
8478;SDS011;4276;49.354;6.804;2023-03-04T08:40:32;51.00;;;32.67;;
8478;SDS011;4276;49.354;6.804;2023-03-04T08:42:58;47.77;;;30.30;;
8478;SDS011;4276;49.354;6.804;2023-03-04T08:45:25;49.53;;;30.23;;
8478;SDS011;4276;49.354;6.804;2023-03-04T08:47:52;47.67;;;31.27;;
8478;SDS011;4276;49.354;6.804;2023-03-04T08:50:18;46.63;;;30.93;;
8478;SDS011;4276;49.354;6.804;2023-03-04T08:52:47;47.43;;;30.13;;
8478;SDS011;4276;49.354;6.804;2023-03-04T08:55:14;45.87;;;29.93;;
8478;SDS011;4276;49.354;6.804;2023-03-04T08:57:40;48.00;;;30.00;;
8478;SDS011;4276;49.354;6.804;2023-03-04T09:00:07;46.37;;;30.53;;
8478;SDS011;4276;49.354;6.804;2023-03-04T09:02:34;43.37;;;29.77;;
8478;SDS011;4276;49.354;6.804;2023-03-04T09:05:00;47.70;;;29.87;;
8478;SDS011;4276;49.354;6.804;2023-03-04T09:07:27;43.40;;;27.47;;
8478;SDS011;4276;49.354;6.804;2023-03-04T09:09:53;44.17;;;30.57;;
8478;SDS011;4276;49.354;6.804;2023-03-04T09:12:20;44.93;;;30.07;;
8478;SDS011;4276;49.354;6.804;2023-03-04T09:14:46;42.93;;;29.20;;
8478;SDS011;4276;49.354;6.804;2023-03-04T09:17:26;39.17;;;28.43;;
8478;SDS011;4276;49.354;6.804;2023-03-04T09:19:52;43.07;;;27.47;;
8478;SDS011;4276;49.354;6.804;2023-03-04T09:22:21;33.13;;;23.67;;
8478;SDS011;4276;49.354;6.804;2023-03-04T09:24:49;33.53;;;19.92;;
8478;SDS011;4276;49.354;6.804;2023-03-04T09:27:15;25.60;;;17.77;;
8478;SDS011;4276;49.354;6.804;2023-03-04T09:29:42;26.67;;;17.42;;
8478;SDS011;4276;49.354;6.804;2023-03-04T09:32:09;25.70;;;17.30;;
8478;SDS011;4276;49.354;6.804;2023-03-04T09:34:36;30.48;;;17.55;;
8478;SDS011;4276;49.354;6.804;2023-03-04T09:37:02;27.00;;;17.13;;
8478;SDS011;4276;49.354;6.804;2023-03-04T09:39:30;25.95;;;16.40;;
8478;SDS011;4276;49.354;6.804;2023-03-04T09:41:57;27.88;;;16.63;;
8478;SDS011;4276;49.354;6.804;2023-03-04T09:44:42;24.58;;;16.33;;
8478;SDS011;4276;49.354;6.804;2023-03-04T09:47:11;23.00;;;16.45;;
8478;SDS011;4276;49.354;6.804;2023-03-04T09:49:42;24.92;;;16.33;;
8478;SDS011;4276;49.354;6.804;2023-03-04T10:00:03;22.55;;;16.35;;
8478;SDS011;4276;49.354;6.804;2023-03-04T10:05:19;23.30;;;16.60;;
8478;SDS011;4276;49.354;6.804;2023-03-04T10:07:47;24.23;;;16.55;;
8478;SDS011;4276;49.354;6.804;2023-03-04T10:10:36;23.38;;;16.17;;
8478;SDS011;4276;49.354;6.804;2023-03-04T10:13:05;24.77;;;16.70;;
8478;SDS011;4276;49.354;6.804;2023-03-04T10:15:39;23.30;;;15.77;;
8478;SDS011;4276;49.354;6.804;2023-03-04T10:18:13;24.45;;;15.98;;
8478;SDS011;4276;49.354;6.804;2023-03-04T10:20:48;26.23;;;16.20;;
8478;SDS011;4276;49.354;6.804;2023-03-04T10:23:24;25.88;;;15.82;;
8478;SDS011;4276;49.354;6.804;2023-03-04T10:25:51;23.58;;;16.17;;
8478;SDS011;4276;49.354;6.804;2023-03-04T10:28:28;22.70;;;15.82;;
8478;SDS011;4276;49.354;6.804;2023-03-04T10:31:30;24.73;;;15.88;;
8478;SDS011;4276;49.354;6.804;2023-03-04T10:34:02;23.38;;;14.63;;
8478;SDS011;4276;49.354;6.804;2023-03-04T10:38:57;23.33;;;14.93;;
8478;SDS011;4276;49.354;6.804;2023-03-04T10:41:25;20.10;;;14.63;;
8478;SDS011;4276;49.354;6.804;2023-03-04T10:46:38;23.23;;;14.27;;
8478;SDS011;4276;49.354;6.804;2023-03-04T10:49:11;22.90;;;14.80;;
8478;SDS011;4276;49.354;6.804;2023-03-04T10:54:16;21.73;;;13.63;;
8478;SDS011;4276;49.354;6.804;2023-03-04T10:57:11;24.23;;;14.73;;
8478;SDS011;4276;49.354;6.804;2023-03-04T11:02:21;24.35;;;13.60;;
8478;SDS011;4276;49.354;6.804;2023-03-04T11:08:14;23.98;;;14.65;;
8478;SDS011;4276;49.354;6.804;2023-03-04T11:10:37;25.95;;;14.73;;
8478;SDS011;4276;49.354;6.804;2023-03-04T11:16:02;23.67;;;14.25;;
8478;SDS011;4276;49.354;6.804;2023-03-04T11:18:37;24.70;;;14.57;;
8478;SDS011;4276;49.354;6.804;2023-03-04T11:21:07;20.27;;;13.05;;
8478;SDS011;4276;49.354;6.804;2023-03-04T11:23:42;17.80;;;11.98;;
8478;SDS011;4276;49.354;6.804;2023-03-04T11:26:25;18.60;;;11.38;;
8478;SDS011;4276;49.354;6.804;2023-03-04T11:28:55;18.30;;;11.80;;
8478;SDS011;4276;49.354;6.804;2023-03-04T11:31:27;18.95;;;11.40;;
8478;SDS011;4276;49.354;6.804;2023-03-04T11:34:07;20.67;;;11.40;;
8478;SDS011;4276;49.354;6.804;2023-03-04T11:36:46;16.67;;;11.80;;
8478;SDS011;4276;49.354;6.804;2023-03-04T11:41:57;18.40;;;10.90;;
8478;SDS011;4276;49.354;6.804;2023-03-04T11:44:25;20.10;;;11.23;;
8478;SDS011;4276;49.354;6.804;2023-03-04T11:49:51;18.48;;;10.98;;
8478;SDS011;4276;49.354;6.804;2023-03-04T11:52:33;19.00;;;10.93;;
8478;SDS011;4276;49.354;6.804;2023-03-04T12:00:53;17.65;;;10.50;;
8478;SDS011;4276;49.354;6.804;2023-03-04T12:03:43;17.08;;;10.80;;
8478;SDS011;4276;49.354;6.804;2023-03-04T12:31:49;13.40;;;8.20;;
8478;SDS011;4276;49.354;6.804;2023-03-04T12:37:25;12.57;;;8.25;;
8478;SDS011;4276;49.354;6.804;2023-03-04T12:40:05;13.98;;;8.82;;
8478;SDS011;4276;49.354;6.804;2023-03-04T12:42:52;14.57;;;8.10;;
8478;SDS011;4276;49.354;6.804;2023-03-04T12:48:08;16.30;;;7.85;;
8478;SDS011;4276;49.354;6.804;2023-03-04T12:59:17;14.05;;;8.27;;
8478;SDS011;4276;49.354;6.804;2023-03-04T13:01:47;10.68;;;7.57;;
8478;SDS011;4276;49.354;6.804;2023-03-04T13:04:29;11.60;;;7.72;;
8478;SDS011;4276;49.354;6.804;2023-03-04T13:12:23;10.93;;;7.18;;
8478;SDS011;4276;49.354;6.804;2023-03-04T13:15:33;12.70;;;7.25;;
8478;SDS011;4276;49.354;6.804;2023-03-04T13:18:29;10.15;;;7.05;;
8478;SDS011;4276;49.354;6.804;2023-03-04T13:21:35;9.60;;;6.90;;
8478;SDS011;4276;49.354;6.804;2023-03-04T13:23:47;9.05;;;6.25;;
8478;SDS011;4276;49.354;6.804;2023-03-04T13:28:52;7.35;;;6.53;;
8478;SDS011;4276;49.354;6.804;2023-03-04T13:31:21;11.52;;;6.88;;
8478;SDS011;4276;49.354;6.804;2023-03-04T13:33:53;11.20;;;6.65;;
8478;SDS011;4276;49.354;6.804;2023-03-04T13:36:31;11.00;;;6.45;;
8478;SDS011;4276;49.354;6.804;2023-03-04T13:39:22;10.50;;;7.05;;
8478;SDS011;4276;49.354;6.804;2023-03-04T13:41:51;9.38;;;5.97;;
8478;SDS011;4276;49.354;6.804;2023-03-04T13:44:54;10.75;;;6.28;;
8478;SDS011;4276;49.354;6.804;2023-03-04T13:47:26;7.90;;;5.93;;
8478;SDS011;4276;49.354;6.804;2023-03-04T13:52:57;11.65;;;5.65;;
8478;SDS011;4276;49.354;6.804;2023-03-04T13:55:33;9.27;;;5.35;;
8478;SDS011;4276;49.354;6.804;2023-03-04T13:58:22;9.10;;;5.78;;
8478;SDS011;4276;49.354;6.804;2023-03-04T14:00:52;8.43;;;5.80;;
8478;SDS011;4276;49.354;6.804;2023-03-04T14:03:21;9.25;;;5.93;;
8478;SDS011;4276;49.354;6.804;2023-03-04T14:08:42;7.53;;;5.03;;
8478;SDS011;4276;49.354;6.804;2023-03-04T14:11:11;9.15;;;5.68;;
8478;SDS011;4276;49.354;6.804;2023-03-04T14:13:39;10.25;;;5.30;;
8478;SDS011;4276;49.354;6.804;2023-03-04T14:16:06;7.28;;;6.15;;
8478;SDS011;4276;49.354;6.804;2023-03-04T14:18:34;7.95;;;5.25;;
8478;SDS011;4276;49.354;6.804;2023-03-04T14:21:00;7.93;;;5.50;;
8478;SDS011;4276;49.354;6.804;2023-03-04T14:23:31;9.68;;;5.90;;
8478;SDS011;4276;49.354;6.804;2023-03-04T14:26:17;7.47;;;5.88;;
8478;SDS011;4276;49.354;6.804;2023-03-04T14:28:44;7.25;;;5.43;;
8478;SDS011;4276;49.354;6.804;2023-03-04T14:31:14;7.88;;;5.68;;
8478;SDS011;4276;49.354;6.804;2023-03-04T14:33:49;6.55;;;5.60;;
8478;SDS011;4276;49.354;6.804;2023-03-04T14:36:19;7.95;;;5.72;;
8478;SDS011;4276;49.354;6.804;2023-03-04T14:38:56;8.80;;;6.32;;
8478;SDS011;4276;49.354;6.804;2023-03-04T14:41:28;9.45;;;5.65;;
8478;SDS011;4276;49.354;6.804;2023-03-04T14:46:37;9.30;;;6.00;;
8478;SDS011;4276;49.354;6.804;2023-03-04T14:49:08;7.20;;;5.75;;
8478;SDS011;4276;49.354;6.804;2023-03-04T14:51:38;11.88;;;5.85;;
8478;SDS011;4276;49.354;6.804;2023-03-04T14:54:28;10.50;;;6.28;;
8478;SDS011;4276;49.354;6.804;2023-03-04T14:59:51;10.88;;;5.97;;
8478;SDS011;4276;49.354;6.804;2023-03-04T15:02:19;9.77;;;5.85;;
8478;SDS011;4276;49.354;6.804;2023-03-04T15:04:50;9.50;;;5.85;;
8478;SDS011;4276;49.354;6.804;2023-03-04T15:07:21;9.32;;;6.22;;
8478;SDS011;4276;49.354;6.804;2023-03-04T15:10:03;7.47;;;5.72;;
8478;SDS011;4276;49.354;6.804;2023-03-04T15:12:32;9.75;;;6.15;;
8478;SDS011;4276;49.354;6.804;2023-03-04T15:15:01;8.10;;;5.95;;
8478;SDS011;4276;49.354;6.804;2023-03-04T15:17:34;9.82;;;6.10;;
8478;SDS011;4276;49.354;6.804;2023-03-04T15:25:05;9.23;;;5.63;;
8478;SDS011;4276;49.354;6.804;2023-03-04T15:27:32;9.13;;;5.65;;
8478;SDS011;4276;49.354;6.804;2023-03-04T15:29:59;8.48;;;6.05;;
8478;SDS011;4276;49.354;6.804;2023-03-04T15:32:27;8.25;;;5.57;;
8478;SDS011;4276;49.354;6.804;2023-03-04T15:34:54;10.63;;;6.47;;
8478;SDS011;4276;49.354;6.804;2023-03-04T15:37:23;14.13;;;9.55;;
8478;SDS011;4276;49.354;6.804;2023-03-04T15:39:52;8.32;;;6.05;;
8478;SDS011;4276;49.354;6.804;2023-03-04T15:42:20;8.07;;;5.63;;
8478;SDS011;4276;49.354;6.804;2023-03-04T15:44:47;6.72;;;4.68;;
8478;SDS011;4276;49.354;6.804;2023-03-04T15:47:13;5.90;;;4.15;;
8478;SDS011;4276;49.354;6.804;2023-03-04T15:49:40;5.55;;;4.55;;
8478;SDS011;4276;49.354;6.804;2023-03-04T15:52:14;5.80;;;4.82;;
8478;SDS011;4276;49.354;6.804;2023-03-04T15:54:43;6.93;;;4.63;;
8478;SDS011;4276;49.354;6.804;2023-03-04T15:57:20;10.25;;;6.53;;
8478;SDS011;4276;49.354;6.804;2023-03-04T15:59:48;7.45;;;5.35;;
8478;SDS011;4276;49.354;6.804;2023-03-04T16:02:22;7.82;;;5.70;;
8478;SDS011;4276;49.354;6.804;2023-03-04T16:04:50;5.90;;;4.90;;
8478;SDS011;4276;49.354;6.804;2023-03-04T16:07:17;6.35;;;4.30;;
8478;SDS011;4276;49.354;6.804;2023-03-04T16:09:44;5.88;;;4.32;;
8478;SDS011;4276;49.354;6.804;2023-03-04T16:12:11;6.55;;;4.53;;
8478;SDS011;4276;49.354;6.804;2023-03-04T16:14:38;6.50;;;4.75;;
8478;SDS011;4276;49.354;6.804;2023-03-04T16:17:04;7.13;;;4.32;;
8478;SDS011;4276;49.354;6.804;2023-03-04T16:19:33;6.18;;;4.63;;
8478;SDS011;4276;49.354;6.804;2023-03-04T16:22:00;6.47;;;4.40;;
8478;SDS011;4276;49.354;6.804;2023-03-04T16:24:27;5.10;;;4.57;;
8478;SDS011;4276;49.354;6.804;2023-03-04T16:26:56;5.95;;;4.20;;
8478;SDS011;4276;49.354;6.804;2023-03-04T16:29:22;4.88;;;4.07;;
8478;SDS011;4276;49.354;6.804;2023-03-04T16:31:49;5.50;;;4.57;;
8478;SDS011;4276;49.354;6.804;2023-03-04T16:34:15;6.85;;;4.68;;
8478;SDS011;4276;49.354;6.804;2023-03-04T16:36:42;7.70;;;5.60;;
8478;SDS011;4276;49.354;6.804;2023-03-04T16:39:12;8.20;;;4.75;;
8478;SDS011;4276;49.354;6.804;2023-03-04T16:41:43;6.15;;;5.55;;
8478;SDS011;4276;49.354;6.804;2023-03-04T16:44:10;8.68;;;6.07;;
8478;SDS011;4276;49.354;6.804;2023-03-04T16:46:39;7.43;;;6.40;;
8478;SDS011;4276;49.354;6.804;2023-03-04T16:49:06;9.73;;;6.30;;
8478;SDS011;4276;49.354;6.804;2023-03-04T16:51:33;6.22;;;5.60;;